Time;durP1;ratioP1;P1;durP2;ratioP2;P2;SDS_P1;SDS_P2;PMS_P1;PMS_P2;Temp;Humidity;BMP_temperature;BMP_pressure;BME280_temperature;BME280_humidity;BME280_pressure;Samples;Min_cycle;Max_cycle;Signal;HPM_P1;HPM_P2
2023/10/02 00:01:07;;;;;;;10.05;3.40;;;;;;;12.92;91.65;101364.31;2115492;28;20025;-78
2023/10/02 00:02:09;;;;;;;7.93;3.13;;;;;;;12.93;91.81;101371.34;2091039;28;20032;-78
2023/10/02 00:03:10;;;;;;;9.90;3.50;;;;;;;12.93;91.90;101361.38;2091024;28;20062;-78
2023/10/02 00:04:18;;;;;;;11.57;3.45;;;;;;;12.92;91.75;101358.94;2090374;28;20220;-78
2023/10/02 00:05:40;;;;;;;7.45;2.88;;;;;;;12.90;91.93;101369.22;2091234;28;20076;-78
2023/10/02 00:06:41;;;;;;;9.23;3.15;;;;;;;12.90;91.95;101363.81;2104373;28;20067;-78
2023/10/02 00:07:45;;;;;;;9.70;3.08;;;;;;;12.90;92.11;101371.91;2098935;28;20029;-78
2023/10/02 00:08:51;;;;;;;9.65;3.80;;;;;;;12.89;92.21;101365.72;2100245;28;20146;-78
2023/10/02 00:09:56;;;;;;;8.52;2.88;;;;;;;12.87;92.21;101362.47;2115737;27;20114;-78
2023/10/02 00:11:35;;;;;;;7.65;3.13;;;;;;;12.85;92.46;101358.41;2106975;28;20063;-78
2023/10/02 00:12:58;;;;;;;7.55;2.75;;;;;;;12.87;92.40;101356.25;2109684;28;20051;-79
2023/10/02 00:14:22;;;;;;;6.57;2.65;;;;;;;12.85;92.50;101358.41;2110740;28;20091;-78
2023/10/02 00:15:27;;;;;;;6.43;2.72;;;;;;;12.83;92.68;101355.16;2110367;28;20048;-78
2023/10/02 00:16:32;;;;;;;8.77;2.83;;;;;;;12.85;92.58;101358.41;2107292;28;20021;-78
2023/10/02 00:17:36;;;;;;;11.18;3.30;;;;;;;12.85;92.65;101363.81;2099842;28;20068;-79
2023/10/02 00:18:38;;;;;;;9.93;3.22;;;;;;;12.83;92.62;101355.16;2099223;28;20027;-78
2023/10/02 00:19:49;;;;;;;10.63;2.92;;;;;;;12.83;92.88;101353.31;2098624;28;20032;-78
2023/10/02 00:21:17;;;;;;;7.15;3.45;;;;;;;12.83;92.87;101353.31;2084825;28;20069;-78
2023/10/02 00:23:59;;;;;;;10.80;2.72;;;;;;;12.80;93.05;101350.31;2101227;28;20036;-78
2023/10/02 00:25:16;;;;;;;7.10;2.65;;;;;;;12.82;93.21;101340.88;2113221;27;20776;-78
2023/10/02 00:26:18;;;;;;;11.77;3.92;;;;;;;12.83;93.19;101345.22;2107130;28;20024;-78
2023/10/02 00:27:21;;;;;;;11.48;3.00;;;;;;;12.81;93.15;101350.06;2098664;28;20136;-78
2023/10/02 00:28:33;;;;;;;9.73;3.13;;;;;;;12.82;93.16;101348.16;2100143;28;20955;-78
2023/10/02 00:29:51;;;;;;;9.32;2.80;;;;;;;12.84;93.15;101356.81;2108704;27;20041;-78
2023/10/02 00:30:55;;;;;;;10.30;2.88;;;;;;;12.82;93.03;101342.78;2108998;28;20147;-78
2023/10/02 00:31:57;;;;;;;8.25;3.00;;;;;;;12.81;93.05;101343.88;2107393;28;20063;-77
2023/10/02 00:33:02;;;;;;;9.05;3.13;;;;;;;12.81;93.11;101346.56;2107273;28;20119;-77
2023/10/02 00:34:06;;;;;;;8.68;2.97;;;;;;;12.82;93.19;101342.78;2107832;28;20037;-77
2023/10/02 00:35:12;;;;;;;10.60;2.60;;;;;;;12.83;93.10;101345.22;2111172;27;20095;-76
2023/10/02 00:36:16;;;;;;;8.60;3.13;;;;;;;12.85;93.32;101355.72;2098493;28;20028;-77
2023/10/02 00:37:18;;;;;;;9.85;2.95;;;;;;;12.86;93.21;101347.38;2075460;28;20037;-79
2023/10/02 00:38:23;;;;;;;12.45;3.08;;;;;;;12.87;93.29;101345.47;2097758;28;20139;-79
2023/10/02 00:39:30;;;;;;;10.70;3.25;;;;;;;12.87;93.38;101353.56;2105825;28;20024;-79
2023/10/02 00:40:32;;;;;;;7.32;2.63;;;;;;;12.85;93.30;101347.63;2090502;28;20048;-78
2023/10/02 00:41:34;;;;;;;7.78;3.10;;;;;;;12.83;93.14;101355.16;2089241;28;20144;-79
2023/10/02 00:42:36;;;;;;;10.70;3.42;;;;;;;12.79;93.03;101354.91;2097399;28;20043;-79
2023/10/02 00:43:45;;;;;;;8.45;2.70;;;;;;;12.78;93.26;101352.50;2097544;28;20049;-79
2023/10/02 00:45:03;;;;;;;9.05;3.15;;;;;;;12.76;93.31;101360.84;2091304;28;20037;-79
2023/10/02 00:46:23;;;;;;;8.63;3.22;;;;;;;12.77;93.51;101357.09;2085756;28;20022;-79
2023/10/02 00:47:50;;;;;;;9.45;3.35;;;;;;;12.78;93.41;101353.31;2104100;28;20028;-79
2023/10/02 00:48:56;;;;;;;8.77;2.70;;;;;;;12.76;93.35;101350.88;2114736;28;20036;-79
2023/10/02 00:50:48;;;;;;;11.15;3.35;;;;;;;12.73;93.42;101356.81;2112933;28;20012;-79
2023/10/02 00:52:00;;;;;;;8.10;3.13;;;;;;;12.74;93.65;101355.75;2097486;28;20139;-78
2023/10/02 00:53:04;;;;;;;10.00;3.13;;;;;;;12.74;93.65;101353.06;2099235;28;20024;-78
2023/10/02 00:54:23;;;;;;;12.60;3.60;;;;;;;12.78;93.62;101352.50;2105940;28;20901;-79
2023/10/02 00:55:32;;;;;;;8.57;2.88;;;;;;;12.78;93.77;101347.09;2100119;28;20033;-79
2023/10/02 00:56:35;;;;;;;6.35;2.95;;;;;;;12.77;93.78;101346.31;2082098;28;20121;-78
2023/10/02 00:57:38;;;;;;;12.43;3.30;;;;;;;12.75;93.64;101341.16;2081742;28;20022;-78
2023/10/02 00:58:40;;;;;;;9.48;3.15;;;;;;;12.76;94.00;101347.38;2089228;28;20037;-78
2023/10/02 00:59:42;;;;;;;11.65;3.33;;;;;;;12.76;94.05;101350.06;2073543;28;20072;-78
2023/10/02 01:00:53;;;;;;;9.65;2.97;;;;;;;12.76;93.96;101350.06;2090432;28;20869;-78
2023/10/02 01:01:56;;;;;;;11.80;3.25;;;;;;;12.76;93.91;101347.38;2082335;28;20213;-78
2023/10/02 01:03:01;;;;;;;6.85;2.85;;;;;;;12.72;93.55;101347.09;2081739;28;20972;-78
2023/10/02 01:04:10;;;;;;;8.02;3.10;;;;;;;12.69;93.74;101344.16;2081737;28;20026;-77
2023/10/02 01:05:21;;;;;;;8.68;2.83;;;;;;;12.68;93.92;101339.84;2098787;28;20037;-79
2023/10/02 01:06:22;;;;;;;7.63;3.00;;;;;;;12.67;93.88;101341.75;2086700;28;20021;-79
2023/10/02 01:07:24;;;;;;;8.93;3.50;;;;;;;12.66;94.00;101345.50;2073328;28;20228;-79
2023/10/02 01:08:42;;;;;;;12.88;3.30;;;;;;;12.66;94.05;101342.81;2081542;28;20073;-80
2023/10/02 01:10:07;;;;;;;8.25;3.30;;;;;;;12.67;94.51;101351.69;2094886;28;20219;-81
2023/10/02 01:11:13;;;;;;;11.00;3.30;;;;;;;12.67;94.71;101341.75;2092213;28;20029;-81
2023/10/02 01:12:18;;;;;;;8.27;3.05;;;;;;;12.69;94.80;101347.66;2102236;28;20329;-79
2023/10/02 01:13:24;;;;;;;13.05;3.38;;;;;;;12.71;95.11;101344.69;2090032;28;20045;-78
2023/10/02 01:15:51;;;;;;;10.15;2.85;;;;;;;12.66;94.67;101337.41;2114867;28;20847;-79
2023/10/02 01:16:55;;;;;;;10.07;3.22;;;;;;;12.67;94.74;101357.09;2097871;28;20028;-79
2023/10/02 01:18:38;;;;;;;11.57;3.45;;;;;;;12.66;94.75;101348.19;2082380;28;20033;-78
2023/10/02 01:19:24;;;;;;;13.10;3.70;;;;;;;12.66;95.07;101353.59;2095834;28;20046;-78
2023/10/02 01:20:35;;;;;;;9.35;2.88;;;;;;;12.66;95.05;101350.09;2103488;28;20040;-78
2023/10/02 01:21:40;;;;;;;10.55;3.30;;;;;;;12.67;95.08;101347.13;2090545;28;20884;-78
2023/10/02 01:22:52;;;;;;;9.40;2.92;;;;;;;12.67;95.11;101349.84;2092550;28;21247;-78
2023/10/02 01:24:16;;;;;;;8.68;2.92;;;;;;;12.70;95.26;101351.16;2090167;28;20052;-78
2023/10/02 01:25:23;;;;;;;10.98;3.45;;;;;;;12.73;95.40;101351.41;2096009;28;20040;-78
2023/10/02 01:26:28;;;;;;;16.38;3.60;;;;;;;12.78;95.39;101353.31;2099325;28;20095;-78
2023/10/02 01:27:40;;;;;;;8.77;2.85;;;;;;;12.82;95.38;101353.56;2081660;28;20127;-78
2023/10/02 01:28:51;;;;;;;12.38;3.13;;;;;;;12.83;95.58;101352.47;2084378;28;20883;-78
2023/10/02 01:30:14;;;;;;;9.63;2.65;;;;;;;12.88;95.34;101355.16;2083681;28;21066;-78
2023/10/02 01:31:31;;;;;;;9.23;3.03;;;;;;;12.92;95.31;101357.03;2100970;28;20043;-78
2023/10/02 01:32:33;;;;;;;6.55;2.80;;;;;;;12.95;95.27;101350.28;2106096;28;20864;-78
2023/10/02 01:33:35;;;;;;;9.30;2.83;;;;;;;12.98;95.19;101353.22;2081346;28;20034;-78
2023/10/02 01:34:39;;;;;;;11.40;2.92;;;;;;;13.02;95.20;101364.31;2081990;28;20159;-79
2023/10/02 01:35:48;;;;;;;8.48;2.38;;;;;;;13.06;95.07;101359.19;2092198;28;20147;-79
2023/10/02 01:36:51;;;;;;;7.13;3.17;;;;;;;13.08;95.02;101357.00;2090879;28;20029;-79
2023/10/02 01:37:55;;;;;;;6.35;2.47;;;;;;;13.10;94.96;101357.53;2089754;28;20151;-81
2023/10/02 01:38:59;;;;;;;7.43;3.25;;;;;;;13.13;95.11;101355.09;2081983;28;20092;-79
2023/10/02 01:41:22;;;;;;;8.40;2.95;;;;;;;13.14;94.65;101348.59;2092194;28;20037;-80
2023/10/02 01:42:26;;;;;;;6.63;2.67;;;;;;;13.22;94.72;101353.44;2093337;28;20030;-79
2023/10/02 01:43:29;;;;;;;8.45;2.97;;;;;;;13.25;94.59;101354.00;2089895;28;20036;-79
2023/10/02 01:44:31;;;;;;;7.28;2.72;;;;;;;13.25;94.58;101351.31;2089982;28;20857;-79
2023/10/02 01:45:34;;;;;;;7.90;2.65;;;;;;;13.28;94.60;101358.84;2089641;28;20072;-79
2023/10/02 01:46:38;;;;;;;8.23;2.97;;;;;;;13.29;94.36;101357.75;2089675;28;20080;-78
2023/10/02 01:47:42;;;;;;;6.22;2.58;;;;;;;13.29;94.14;101357.75;2090216;28;20123;-78
2023/10/02 01:48:44;;;;;;;12.68;3.33;;;;;;;13.30;94.37;101362.88;2089544;28;20945;-79
2023/10/02 01:49:47;;;;;;;7.35;2.92;;;;;;;13.33;94.77;101358.81;2089914;28;20756;-78
2023/10/02 01:50:50;;;;;;;7.38;2.70;;;;;;;13.36;94.21;101358.25;2089478;28;20060;-77
2023/10/02 01:52:02;;;;;;;7.85;2.75;;;;;;;13.40;94.24;101362.03;2091638;28;20068;-78
2023/10/02 01:53:29;;;;;;;7.07;2.80;;;;;;;13.42;94.04;101351.75;2092369;28;20941;-78
2023/10/02 01:54:31;;;;;;;10.90;3.17;;;;;;;13.42;93.86;101351.75;2094410;28;20076;-78
2023/10/02 01:55:40;;;;;;;13.55;3.22;;;;;;;13.42;93.75;101347.16;2091434;28;20034;-79
2023/10/02 01:56:47;;;;;;;8.88;2.70;;;;;;;13.45;93.70;101346.59;2100748;28;20017;-78
2023/10/02 01:57:49;;;;;;;8.75;3.00;;;;;;;13.48;93.58;101352.53;2099446;28;20037;-78
2023/10/02 01:58:54;;;;;;;9.43;2.65;;;;;;;13.50;93.57;101348.47;2075456;28;20754;-78
2023/10/02 02:00:13;;;;;;;6.28;2.88;;;;;;;13.51;93.37;101344.69;2082602;28;20022;-77
2023/10/02 02:01:15;;;;;;;9.00;3.25;;;;;;;13.52;93.35;101356.28;2104597;28;20122;-77
2023/10/02 02:02:19;;;;;;;9.77;3.00;;;;;;;13.53;93.19;101347.91;2099329;28;20784;-77
2023/10/02 02:03:23;;;;;;;9.30;3.05;;;;;;;13.53;93.28;101345.22;2100156;28;20772;-77
2023/10/02 02:04:32;;;;;;;5.65;2.70;;;;;;;13.55;93.12;101345.72;2099214;28;20029;-78
2023/10/02 02:05:34;;;;;;;9.70;2.47;;;;;;;13.57;93.21;101345.47;2100108;28;20059;-77
2023/10/02 02:06:51;;;;;;;8.93;2.70;;;;;;;13.58;93.08;101342.47;2099170;28;20021;-77
2023/10/02 02:07:53;;;;;;;8.23;2.85;;;;;;;13.59;92.84;101346.00;2101419;28;20147;-77
2023/10/02 02:09:01;;;;;;;9.38;2.60;;;;;;;13.61;92.84;101355.41;2099596;28;20037;-77
2023/10/02 02:10:03;;;;;;;7.68;2.72;;;;;;;13.63;93.03;101357.84;2099362;28;20033;-77
2023/10/02 02:11:24;;;;;;;7.63;2.35;;;;;;;13.65;92.85;101356.50;2075192;28;20029;-77
2023/10/02 02:12:44;;;;;;;8.70;2.75;;;;;;;13.65;92.61;101351.09;2087914;28;20810;-77
2023/10/02 02:13:51;;;;;;;7.65;2.58;;;;;;;13.68;92.85;101363.22;2096332;28;20170;-78
2023/10/02 02:14:53;;;;;;;8.88;2.50;;;;;;;13.68;92.71;101355.94;2092890;28;20013;-77
2023/10/02 02:16:07;;;;;;;9.65;2.60;;;;;;;13.72;92.59;101358.09;2091109;28;20037;-78
2023/10/02 02:17:12;;;;;;;9.20;3.22;;;;;;;13.72;92.55;101349.97;2096035;28;20032;-77
2023/10/02 02:18:16;;;;;;;5.25;2.47;;;;;;;13.75;92.81;101358.31;2108275;28;20143;-78
2023/10/02 02:19:18;;;;;;;10.80;2.70;;;;;;;13.77;92.32;101352.63;2091699;28;20874;-78
2023/10/02 02:20:43;;;;;;;7.35;2.63;;;;;;;13.80;92.48;101360.16;2082895;28;20105;-78
2023/10/02 02:21:41;;;;;;;7.72;2.58;;;;;;;13.81;92.48;101359.91;2104026;28;20032;-78
2023/10/02 02:22:45;;;;;;;9.15;2.50;;;;;;;13.84;91.99;101361.22;2099566;28;20037;-78
2023/10/02 02:24:11;;;;;;;8.60;2.72;;;;;;;13.84;91.89;101359.34;2101343;28;20154;-78
2023/10/02 02:25:33;;;;;;;11.82;2.85;;;;;;;13.83;91.87;101362.31;2098051;28;20071;-78
2023/10/02 02:26:40;;;;;;;9.57;2.72;;;;;;;13.83;91.46;101356.91;2099868;28;20049;-78
2023/10/02 02:27:46;;;;;;;7.00;2.53;;;;;;;13.82;91.63;101356.09;2099758;28;20040;-78
2023/10/02 02:28:49;;;;;;;8.80;3.00;;;;;;;13.83;91.66;101360.41;2092444;28;20042;-78
2023/10/02 02:30:17;;;;;;;11.07;3.22;;;;;;;13.84;91.63;101358.50;2096519;28;20036;-77
2023/10/02 02:31:39;;;;;;;6.80;2.45;;;;;;;13.84;91.63;101358.50;2104573;28;20043;-76
2023/10/02 02:32:44;;;;;;;7.93;2.78;;;;;;;13.87;91.75;101357.97;2107379;28;20036;-77
2023/10/02 02:33:46;;;;;;;7.32;3.80;;;;;;;13.87;91.49;101355.25;2108492;28;20889;-77
2023/10/02 02:35:14;;;;;;;8.48;2.80;;;;;;;13.90;91.44;101352.00;2107500;28;20986;-77
2023/10/02 02:36:21;;;;;;;9.13;2.55;;;;;;;13.91;91.58;101361.72;2105292;28;20039;-77
2023/10/02 02:37:28;;;;;;;7.88;2.67;;;;;;;13.92;91.42;101349.81;2099921;28;20736;-77
2023/10/02 02:38:33;;;;;;;11.73;2.90;;;;;;;13.93;91.08;101356.03;2092207;28;20029;-77
2023/10/02 02:39:38;;;;;;;6.45;3.10;;;;;;;13.91;91.37;101354.44;2092250;28;20038;-78
2023/10/02 02:40:42;;;;;;;5.95;2.78;;;;;;;13.95;91.33;101360.06;2082928;28;20875;-78
2023/10/02 02:41:43;;;;;;;7.88;2.85;;;;;;;13.96;91.16;101355.47;2091669;28;20037;-78
2023/10/02 02:42:46;;;;;;;9.82;2.90;;;;;;;13.98;91.07;101356.00;2089128;28;20509;-78
2023/10/02 02:43:48;;;;;;;9.35;2.30;;;;;;;13.98;91.43;101354.09;2083056;28;20077;-78
2023/10/02 02:44:50;;;;;;;7.03;2.70;;;;;;;13.97;91.28;101357.91;2083148;28;20029;-78
2023/10/02 02:45:51;;;;;;;9.00;2.55;;;;;;;13.99;90.90;101352.19;2091057;28;20159;-78
2023/10/02 02:46:59;;;;;;;9.35;2.95;;;;;;;13.97;91.25;101347.09;2099591;28;20025;-77
2023/10/02 02:48:10;;;;;;;9.85;2.78;;;;;;;14.01;91.29;101352.75;2108590;28;20039;-77
2023/10/02 02:49:12;;;;;;;11.25;3.60;;;;;;;13.97;90.73;101347.09;2108994;28;20075;-77
2023/10/02 02:50:14;;;;;;;10.55;2.75;;;;;;;14.01;90.98;101347.34;2107624;28;20728;-77
2023/10/02 02:51:21;;;;;;;8.82;2.92;;;;;;;14.01;91.08;101350.84;2095289;28;20146;-77
2023/10/02 02:52:32;;;;;;;6.20;2.75;;;;;;;14.02;91.12;101354.34;2100470;28;20071;-77
2023/10/02 02:53:35;;;;;;;9.38;2.90;;;;;;;14.01;91.11;101345.44;2098957;28;21356;-77
2023/10/02 02:54:44;;;;;;;12.90;3.03;;;;;;;14.01;90.76;101355.44;2082838;28;20199;-77
2023/10/02 02:55:45;;;;;;;7.55;2.53;;;;;;;14.00;90.89;101341.13;2093197;28;20030;-78
2023/10/02 02:56:56;;;;;;;8.38;2.40;;;;;;;14.00;91.15;101349.22;2099302;28;20068;-76
2023/10/02 02:57:58;;;;;;;7.65;3.00;;;;;;;14.01;90.98;101347.34;2100631;28;20021;-76
2023/10/02 02:59:02;;;;;;;9.18;2.70;;;;;;;14.01;90.78;101337.31;2090774;28;20789;-76
2023/10/02 03:01:44;;;;;;;7.88;2.83;;;;;;;14.05;90.81;101342.97;2064254;28;20051;-77
2023/10/02 03:02:52;;;;;;;11.73;2.75;;;;;;;14.04;90.68;101336.75;2084249;28;20042;-77
2023/10/02 03:03:59;;;;;;;10.00;2.78;;;;;;;14.05;90.80;101341.06;2099907;28;20207;-78
2023/10/02 03:05:03;;;;;;;8.02;2.60;;;;;;;14.06;90.81;101337.28;2091442;28;20155;-78
2023/10/02 03:06:14;;;;;;;10.05;3.10;;;;;;;14.07;90.70;101330.78;2091271;28;20042;-78
2023/10/02 03:07:29;;;;;;;13.00;3.03;;;;;;;14.10;90.44;101341.03;2099012;28;20152;-77
2023/10/02 03:08:41;;;;;;;10.85;3.90;;;;;;;14.11;90.49;101339.13;2094625;28;20849;-78
2023/10/02 03:09:42;;;;;;;8.45;3.88;;;;;;;14.10;90.24;101341.03;2100684;28;20083;-77
2023/10/02 03:10:47;;;;;;;7.07;3.67;;;;;;;14.11;90.13;101348.06;2090917;28;20029;-77
2023/10/02 03:11:50;;;;;;;8.70;3.22;;;;;;;14.11;90.43;101344.53;2074778;28;20143;-77
2023/10/02 03:12:54;;;;;;;8.25;2.92;;;;;;;14.12;90.23;101348.84;2089658;28;20026;-77
2023/10/02 03:14:14;;;;;;;6.70;2.90;;;;;;;14.12;90.37;101349.69;2091657;28;20140;-77
2023/10/02 03:15:45;;;;;;;5.80;2.53;;;;;;;14.13;90.01;101345.88;2110451;28;20032;-78
2023/10/02 03:16:46;;;;;;;5.35;2.67;;;;;;;14.14;90.26;101347.50;2102364;28;20040;-77
2023/10/02 03:17:50;;;;;;;10.80;3.03;;;;;;;14.13;90.14;101340.47;2092352;28;20041;-77
2023/10/02 03:18:54;;;;;;;8.15;2.70;;;;;;;14.16;89.89;101343.72;2099889;28;20039;-78
2023/10/02 03:20:21;;;;;;;5.85;2.30;;;;;;;14.17;89.81;101338.00;2100343;28;20029;-77
2023/10/02 03:21:24;;;;;;;6.60;2.50;;;;;;;14.20;89.98;101339.34;2098937;28;20031;-77
2023/10/02 03:22:27;;;;;;;8.57;2.78;;;;;;;14.21;90.00;101346.34;2091028;28;20855;-78
2023/10/02 03:23:30;;;;;;;7.25;2.70;;;;;;;14.20;89.64;101339.34;2099232;28;20089;-79
2023/10/02 03:24:34;;;;;;;7.82;3.35;;;;;;;14.21;89.78;101335.53;2090574;28;20147;-78
2023/10/02 03:25:41;;;;;;;10.43;2.55;;;;;;;14.22;89.42;101339.84;2092599;28;20923;-78
2023/10/02 03:26:44;;;;;;;9.73;2.50;;;;;;;14.23;89.72;101339.56;2107292;28;20031;-78
2023/10/02 03:27:48;;;;;;;7.32;3.00;;;;;;;14.25;89.45;101342.81;2093785;28;20052;-78
2023/10/02 03:29:00;;;;;;;7.50;2.45;;;;;;;14.26;89.11;101349.03;2090812;28;20025;-78
2023/10/02 03:30:03;;;;;;;7.20;2.55;;;;;;;14.25;89.17;101347.41;2091876;28;20037;-79
2023/10/02 03:31:16;;;;;;;10.35;2.90;;;;;;;14.24;88.77;101337.66;2098872;28;20039;-78
2023/10/02 03:32:20;;;;;;;4.90;2.47;;;;;;;14.23;88.81;101338.78;2100762;28;20021;-78
2023/10/02 03:33:31;;;;;;;7.90;3.03;;;;;;;14.16;89.04;101322.06;2099292;28;20041;-78
2023/10/02 03:34:33;;;;;;;9.02;2.75;;;;;;;14.22;88.88;101335.25;2092409;28;20073;-78
2023/10/02 03:35:39;;;;;;;10.40;2.72;;;;;;;14.23;88.96;101338.78;2090726;28;20049;-79
2023/10/02 03:36:42;;;;;;;7.80;3.08;;;;;;;14.22;88.69;101339.84;2084661;28;20042;-78
2023/10/02 03:37:51;;;;;;;10.27;2.95;;;;;;;14.21;88.51;101341.75;2091453;28;20038;-78
2023/10/02 03:38:57;;;;;;;7.47;3.03;;;;;;;14.21;88.55;101335.53;2100038;28;20036;-78
2023/10/02 03:40:00;;;;;;;8.02;2.75;;;;;;;14.21;88.57;101347.16;2091180;28;20041;-78
2023/10/02 03:41:03;;;;;;;11.82;2.50;;;;;;;14.20;88.43;101342.03;2090701;28;20149;-78
2023/10/02 03:42:11;;;;;;;8.15;2.60;;;;;;;14.19;88.53;101349.34;2098545;28;20032;-79
2023/10/02 03:43:31;;;;;;;7.20;2.53;;;;;;;14.21;88.32;101346.34;2098988;28;20044;-79
2023/10/02 03:44:36;;;;;;;7.15;2.60;;;;;;;14.22;88.62;101345.25;2098745;28;20017;-79
2023/10/02 03:45:44;;;;;;;7.25;2.70;;;;;;;14.21;88.62;101341.75;2108038;28;20863;-78
2023/10/02 03:46:51;;;;;;;11.02;2.78;;;;;;;14.23;88.40;101339.56;2108519;28;20044;-78
2023/10/02 03:48:02;;;;;;;7.60;2.25;;;;;;;14.25;88.49;101340.13;2107079;28;20044;-78
2023/10/02 03:49:05;;;;;;;6.40;2.60;;;;;;;14.28;88.50;101346.81;2109063;28;20036;-78
2023/10/02 03:50:12;;;;;;;8.60;2.65;;;;;;;14.27;88.26;101337.91;2115704;28;20042;-78
2023/10/02 03:51:35;;;;;;;6.78;2.70;;;;;;;14.29;87.97;101341.16;2108026;28;20114;-78
2023/10/02 03:52:41;;;;;;;10.50;2.60;;;;;;;14.30;87.83;101336.53;2106328;28;21131;-79
2023/10/02 03:53:49;;;;;;;6.85;2.35;;;;;;;14.28;87.89;101336.84;2107638;28;21160;-78
2023/10/02 03:54:54;;;;;;;8.90;2.55;;;;;;;14.32;88.02;101345.19;2107034;28;20035;-78
2023/10/02 03:58:49;;;;;;;6.75;3.42;;;;;;;14.29;87.77;101348.47;2101525;28;20159;-79
2023/10/02 03:59:57;;;;;;;9.57;2.50;;;;;;;14.28;87.78;101347.66;2082225;28;20827;-79
2023/10/02 04:00:58;;;;;;;6.88;2.30;;;;;;;14.25;87.52;101342.81;2092606;28;20819;-77
2023/10/02 04:03:22;;;;;;;7.60;2.60;;;;;;;14.27;87.67;101345.22;2102507;28;20090;-79
2023/10/02 04:04:24;;;;;;;6.93;2.17;;;;;;;14.26;87.57;101344.41;2098640;28;20824;-78
2023/10/02 04:06:42;;;;;;;8.93;2.47;;;;;;;14.29;87.33;101343.06;2100064;28;20032;-78
2023/10/02 04:07:47;;;;;;;10.18;2.67;;;;;;;14.32;87.55;101340.59;2090300;28;20025;-79
2023/10/02 04:09:05;;;;;;;5.35;2.50;;;;;;;14.32;87.54;101342.47;2091308;28;20123;-79
2023/10/02 04:10:09;;;;;;;7.00;2.30;;;;;;;14.32;87.27;101337.06;2092814;28;20046;-78
2023/10/02 04:11:14;;;;;;;7.20;3.03;;;;;;;14.32;87.15;101334.38;2082673;28;20153;-78
2023/10/02 04:12:19;;;;;;;8.98;2.35;;;;;;;14.34;87.06;101337.56;2091812;28;20148;-79
2023/10/02 04:13:25;;;;;;;6.57;2.17;;;;;;;14.34;87.33;101332.16;2106597;28;20160;-78
2023/10/02 04:14:31;;;;;;;7.75;2.58;;;;;;;14.37;87.18;101334.31;2099528;28;20029;-78
2023/10/02 04:15:33;;;;;;;8.77;2.40;;;;;;;14.38;87.04;101330.53;2110449;28;20024;-78
2023/10/02 04:16:38;;;;;;;10.25;2.78;;;;;;;14.42;86.82;101325.34;2106962;28;20032;-79
2023/10/02 04:17:39;;;;;;;9.35;2.65;;;;;;;14.43;86.84;101335.88;2091053;28;20946;-79
2023/10/02 04:18:47;;;;;;;7.90;2.55;;;;;;;14.46;86.60;101327.19;2090275;28;20864;-78
2023/10/02 04:19:51;;;;;;;7.82;2.65;;;;;;;14.48;86.88;101330.41;2083611;28;20038;-78
2023/10/02 04:21:08;;;;;;;8.75;3.05;;;;;;;14.49;86.75;101326.63;2091628;28;20152;-78
2023/10/02 04:22:31;;;;;;;12.07;2.80;;;;;;;14.50;86.51;101333.66;2098859;28;20148;-78
2023/10/02 04:23:42;;;;;;;9.27;2.15;;;;;;;14.49;86.38;101332.03;2106606;28;20029;-78
2023/10/02 04:25:03;;;;;;;11.10;2.88;;;;;;;14.51;86.12;101329.06;2106717;28;20040;-78
2023/10/02 04:26:05;;;;;;;5.63;2.45;;;;;;;14.51;86.05;101329.88;2097495;28;20070;-78
2023/10/02 04:27:18;;;;;;;7.93;2.40;;;;;;;14.52;85.98;101326.06;2083282;28;20107;-78
2023/10/02 04:28:27;;;;;;;7.28;2.60;;;;;;;14.54;85.92;101323.91;2082432;28;20072;-78
2023/10/02 04:29:29;;;;;;;7.93;2.45;;;;;;;14.54;85.73;101329.31;2076210;28;21088;-78
2023/10/02 04:30:37;;;;;;;5.80;2.33;;;;;;;14.56;85.53;101321.72;2090345;28;20115;-79
2023/10/02 04:31:41;;;;;;;10.45;2.53;;;;;;;14.58;85.57;101324.94;2107057;28;20118;-79
2023/10/02 04:32:59;;;;;;;5.95;2.65;;;;;;;14.60;85.37;101319.25;2106733;28;20032;-78
2023/10/02 04:34:23;;;;;;;12.15;2.92;;;;;;;14.59;85.29;101310.28;2098828;28;20039;-78
2023/10/02 04:35:57;;;;;;;7.13;2.42;;;;;;;14.62;85.42;101302.72;2092976;28;20029;-79
2023/10/02 04:36:48;;;;;;;8.10;2.60;;;;;;;14.62;85.34;101308.13;2095354;28;20114;-79
2023/10/02 04:37:51;;;;;;;7.53;2.67;;;;;;;14.60;85.03;101306.53;2105417;28;20064;-76
2023/10/02 04:38:55;;;;;;;9.07;2.42;;;;;;;14.60;84.61;101308.41;2098686;28;20029;-79
2023/10/02 04:41:05;;;;;;;7.25;2.83;;;;;;;14.56;84.19;101308.19;2107079;28;20024;-78
2023/10/02 04:42:15;;;;;;;7.93;2.72;;;;;;;14.54;84.32;101313.06;2098654;28;20091;-78
2023/10/02 04:43:19;;;;;;;8.50;2.63;;;;;;;14.55;83.78;101305.75;2098421;28;20107;-78
2023/10/02 04:44:24;;;;;;;4.57;2.33;;;;;;;14.56;84.32;101308.19;2107116;28;20021;-78
2023/10/02 04:45:26;;;;;;;5.18;2.55;;;;;;;14.55;84.30;101306.56;2098615;28;20033;-78
2023/10/02 04:46:32;;;;;;;7.88;2.80;;;;;;;14.55;83.89;101305.75;2081988;28;20044;-78
2023/10/02 04:47:35;;;;;;;8.57;2.60;;;;;;;14.55;83.80;101319.28;2091845;28;20060;-79
2023/10/02 04:48:39;;;;;;;8.63;2.88;;;;;;;14.53;83.82;101314.19;2090516;28;20026;-79
2023/10/02 04:50:30;;;;;;;9.15;3.03;;;;;;;14.52;83.96;101317.97;2082915;28;20038;-77
2023/10/02 04:51:09;;;;;;;11.00;3.15;;;;;;;14.49;83.87;101310.38;2107736;28;20044;-77
2023/10/02 04:52:53;;;;;;;10.32;3.17;;;;;;;14.48;84.10;101319.59;2100360;28;20068;-80
2023/10/02 04:53:49;;;;;;;7.43;2.75;;;;;;;14.49;83.94;101320.41;2087148;28;20965;-77
2023/10/02 04:55:07;;;;;;;10.38;2.95;;;;;;;14.49;84.09;101315.78;2093758;28;20040;-75
2023/10/02 04:57:22;;;;;;;13.98;2.95;;;;;;;14.47;84.07;101318.00;2099515;28;20869;-79
2023/10/02 04:58:27;;;;;;;7.57;2.60;;;;;;;14.47;84.18;101318.00;2099086;28;20910;-80
2023/10/02 04:59:51;;;;;;;5.82;2.85;;;;;;;14.47;84.19;101317.16;2081687;28;20029;-81
2023/10/02 05:02:21;;;;;;;8.23;2.90;;;;;;;14.50;84.00;101322.00;2083986;28;20774;-80
2023/10/02 05:03:25;;;;;;;11.07;2.90;;;;;;;14.50;83.57;101324.72;2089594;28;21228;-78
2023/10/02 05:04:31;;;;;;;10.48;2.80;;;;;;;14.49;83.84;101321.19;2074249;28;20043;-79
2023/10/02 05:05:42;;;;;;;9.68;2.97;;;;;;;14.50;83.61;101316.59;2075406;28;20956;-78
2023/10/02 05:06:55;;;;;;;7.60;3.13;;;;;;;14.49;83.88;101321.19;2075259;28;20034;-79
2023/10/02 05:07:57;;;;;;;9.23;3.00;;;;;;;14.50;83.99;101316.59;2082238;28;20041;-76
2023/10/02 05:10:08;;;;;;;7.28;2.50;;;;;;;14.52;83.57;101315.25;2083122;28;20026;-77
2023/10/02 05:11:26;;;;;;;10.07;3.10;;;;;;;14.54;83.70;101321.19;2089907;28;20030;-77
2023/10/02 05:12:28;;;;;;;8.55;3.15;;;;;;;14.54;83.80;101317.69;2078039;28;20029;-78
2023/10/02 05:15:07;;;;;;;;;;;;;;;14.57;83.76;101315.22;2087292;28;20037;-80
2023/10/02 05:16:11;;;;;;;8.82;3.10;;;;;;;14.57;83.54;101317.13;2089639;28;19928;-78
2023/10/02 05:17:17;;;;;;;6.75;3.00;;;;;;;14.59;83.55;101313.00;2090889;28;20784;-78
2023/10/02 05:18:23;;;;;;;14.98;3.30;;;;;;;14.61;83.22;101315.44;2098326;28;20021;-75
2023/10/02 05:19:56;;;;;;;9.27;3.38;;;;;;;14.63;83.62;101313.25;2098517;28;20021;-75
2023/10/02 05:20:47;;;;;;;5.55;2.95;;;;;;;14.67;83.59;101321.59;2089271;28;20041;-85
2023/10/02 05:21:55;;;;;;;10.88;3.33;;;;;;;14.68;83.35;101313.19;2089620;28;20037;-80
2023/10/02 05:22:59;;;;;;;9.00;3.35;;;;;;;14.68;83.29;101315.09;2079573;28;20034;-78
2023/10/02 05:24:01;;;;;;;8.85;3.35;;;;;;;14.69;83.30;101319.41;2066093;28;20869;-75
2023/10/02 05:25:10;;;;;;;6.25;2.85;;;;;;;14.70;82.96;101321.03;2065454;28;20034;-75
2023/10/02 05:26:29;;;;;;;10.20;3.50;;;;;;;14.70;82.74;101315.63;2067390;28;20081;-75
2023/10/02 05:27:33;;;;;;;7.75;3.10;;;;;;;14.69;82.71;101322.09;2070686;28;20034;-76
2023/10/02 05:28:44;;;;;;;9.40;2.85;;;;;;;14.69;82.86;101324.81;2082549;28;20135;-76
2023/10/02 05:29:46;;;;;;;8.02;2.90;;;;;;;14.68;82.69;101323.22;2084405;28;20029;-76
2023/10/02 05:30:48;;;;;;;12.95;3.60;;;;;;;14.68;82.89;101317.78;2088696;28;20018;-75
2023/10/02 05:31:52;;;;;;;12.20;3.05;;;;;;;14.69;82.84;101320.22;2065031;28;20097;-76
2023/10/02 05:32:56;;;;;;;8.55;2.72;;;;;;;14.69;82.43;101320.22;2057607;28;20042;-77
2023/10/02 05:34:01;;;;;;;6.68;3.17;;;;;;;14.72;82.60;101325.06;2081463;28;20038;-79
2023/10/02 05:35:16;;;;;;;11.18;3.25;;;;;;;14.72;82.56;101318.84;2072246;28;20042;-79